Aérodrome :
LOGIN :

S'inscrire | Disclaimer

   EN    FR    IT 

 










Légende :    VFR   VFR Marginal   IFR   IFR Intensif   IFR Très Intensif
Visi : 
Plafond : 
>= 8 km
>= 3000ft
5 à 8 km
1000 à 3000 ft
1500m à 5 km
500 à 1000 ft
800 à 1500m
200 à 500 ft
< 800m
< 200 ft
Symboles :   Orages  Brouillard  Fortes neiges  Fortes précipitations  Vent > 20 kt
SIGMETs :   Divers  Orages  Givrage  Turbulence  Onde Orograph.  Cendres Volcan.






- Altitude de l'aérodrome : 433 ft


LFOC - Chateaudun

DERNIER METAR :
  • 140030Z AUTO 17014KT 9999 // ////// 06/06 Q0993

METARs EXPIRÉS :
  • 140000Z AUTO 17016KT 9999 // ////// 06/05 Q0993
  • 132330Z AUTO 17015KT 7000 // ////// 06/05 Q0994
  • 132300Z AUTO 16014KT 9999 RA ////// 06/05 Q0994
  • 132230Z AUTO 16017KT 9999 -RA ////// 06/05 Q0994
  • 132200Z AUTO 16018KT 9999 ////// 06/04 Q0995

TAF TAF LFOC
Valide du 13 à 15h jusqu'au 14 à 15h UTC


131400Z 1315/1415 24010KT 9999 BKN020 BKN054
BECMG 1317/1319 19015G28KT
BECMG 1319/1321 3000 RA BKN007 OVC018
BECMG 1401/1403 22014KT 9999 NSW SCT020
TEMPO 1405/1409 BKN008



MET'MAP, la Météo Aéronautique d'un coup d'oeil ! - Copyright ORBIFLY Décembre 2007 - Disclaimer

ORBIFLY MET'MAP TEAM :

Programmation & Développement : Alexandra Zaïnal
Conception & Développement : Baudouin d'Aumeries
Co-Programmation & Développement : Marc-Olivier Méhu
Soutien technique & logistique : Manuel Goepfert

Contact : metmap@orbifly.com




SOURCES & CREDITS :

   NOAA